Terminal Aerodrome Forecast
Issued by NWS Paducah, KY

Home | Current Version | Previous Version | Text Only | Print | Product List | Glossary Off
Versions: 1 2 3 4 5 6 7 8 9 10 11 12 13 14 15

314
FTUS43 KPAH 170521
TAFPAH
TAF
KPAH 170521Z 1706/1806 19004KT P6SM SCT050 OVC130
     FM171300 17008KT 4SM -RA BR SCT015 OVC030
      TEMPO 1714/1718 2SM RA BR OVC015
     FM171900 20007KT P6SM SCT020 OVC040
     FM180100 20004KT P6SM OVC035=

USA.gov is the U.S. government's official web portal to all federal, state and local government web resources and services.